Time;durP1;ratioP1;P1;durP2;ratioP2;P2;SDS_P1;SDS_P2;PMS_P1;PMS_P2;Temp;Humidity;BMP_temperature;BMP_pressure;BME280_temperature;BME280_humidity;BME280_pressure;Samples;Min_cycle;Max_cycle;Signal;HPM_P1;HPM_P2
2022/05/22 12:41:34;;;;;;;16.60;7.43;;;;;;;22.74;39.61;101325.47;5053638;27;20402;-81
2022/05/22 12:44:00;;;;;;;13.40;6.70;;;;;;;23.09;42.43;101318.94;5038722;28;20021;-82
2022/05/22 12:46:26;;;;;;;12.85;6.47;;;;;;;22.90;40.03;101317.94;5038406;28;20041;-84
2022/05/22 12:49:27;;;;;;;12.27;6.28;;;;;;;22.89;39.94;101313.53;5038869;28;20227;-84
2022/05/22 12:52:06;;;;;;;11.52;6.53;;;;;;;22.72;41.43;101311.94;5034153;28;20047;-83
2022/05/22 12:54:36;;;;;;;13.43;7.63;;;;;;;22.52;39.45;101298.19;5038325;28;20029;-88
2022/05/22 12:57:19;;;;;;;14.52;7.20;;;;;;;22.63;40.91;101310.03;5039023;28;20018;-88
2022/05/22 12:59:57;;;;;;;15.95;7.15;;;;;;;22.42;41.21;101301.81;5033594;28;20084;-88
2022/05/22 13:02:42;;;;;;;14.35;6.35;;;;;;;22.63;42.64;101313.63;5037382;28;20037;-88
2022/05/22 13:05:22;;;;;;;10.15;6.43;;;;;;;22.49;42.09;101304.28;5039500;28;20033;-88
2022/05/22 13:07:48;;;;;;;11.95;7.10;;;;;;;22.40;41.53;101302.13;5038243;28;20041;-88
2022/05/22 13:10:25;;;;;;;12.18;6.60;;;;;;;22.46;44.04;101299.34;5038232;28;20079;-88
2022/05/22 13:13:01;;;;;;;11.32;6.43;;;;;;;22.27;41.77;101297.16;5038055;28;20112;-89
2022/05/22 13:15:29;;;;;;;11.45;6.45;;;;;;;22.13;40.42;101299.66;5040094;28;20032;-88
2022/05/22 13:18:17;;;;;;;13.30;6.50;;;;;;;22.18;41.32;101290.53;5040606;28;20411;-88
2022/05/22 13:20:49;;;;;;;9.73;6.40;;;;;;;22.00;40.75;101286.44;5040504;28;20132;-88
2022/05/22 13:23:23;;;;;;;8.75;5.97;;;;;;;22.06;42.29;101291.66;5036633;28;20021;-88
2022/05/22 13:25:51;;;;;;;11.68;6.70;;;;;;;22.06;42.23;101290.84;5037737;28;20612;-88
2022/05/22 13:28:24;;;;;;;13.50;7.25;;;;;;;22.00;42.11;101278.16;5034320;28;20048;-89
2022/05/22 13:30:56;;;;;;;13.38;7.22;;;;;;;21.79;42.48;101269.09;5039071;28;20033;-88
2022/05/22 13:33:22;;;;;;;13.60;6.80;;;;;;;21.85;45.29;101262.47;5038639;28;20444;-89
2022/05/22 13:36:18;;;;;;;14.45;7.50;;;;;;;21.64;45.21;101264.44;5039578;28;20075;-89
2022/05/22 13:38:44;;;;;;;13.13;6.70;;;;;;;21.71;43.60;101256.69;5038193;28;20075;-88
2022/05/22 13:41:12;;;;;;;13.57;6.88;;;;;;;21.80;42.17;101265.22;5036682;28;20053;-88
2022/05/22 13:44:08;;;;;;;12.30;6.70;;;;;;;21.92;44.24;101265.75;5038645;28;20543;-88
2022/05/22 13:46:57;;;;;;;11.63;7.28;;;;;;;21.90;42.52;101255.00;5041101;28;20025;-89
2022/05/22 13:53:18;;;;;;;14.25;6.88;;;;;;;21.93;41.82;101245.34;5013069;28;20040;-83
2022/05/22 13:55:47;;;;;;;12.77;6.22;;;;;;;21.68;39.77;101241.53;5024599;28;20409;-83
2022/05/22 13:58:38;;;;;;;13.05;6.05;;;;;;;21.67;41.57;101239.84;5022119;28;20037;-83
2022/05/22 14:01:19;;;;;;;13.02;6.15;;;;;;;21.93;44.89;101220.50;5022516;28;20033;-84
2022/05/22 14:03:57;;;;;;;13.85;7.00;;;;;;;21.88;42.33;101223.28;5020714;28;20040;-83
2022/05/22 14:06:34;;;;;;;13.20;7.32;;;;;;;21.88;43.52;101223.28;5022191;28;20130;-83
2022/05/22 14:09:01;;;;;;;11.57;7.60;;;;;;;21.80;42.30;101219.19;5020503;28;20037;-83
2022/05/22 14:11:29;;;;;;;12.88;7.70;;;;;;;21.77;43.91;101210.63;5036890;28;20095;-83
2022/05/22 14:14:01;;;;;;;14.02;7.57;;;;;;;21.89;44.04;101209.19;5021754;28;20044;-89
2022/05/22 14:16:28;;;;;;;14.63;7.72;;;;;;;21.96;43.90;101203.41;5023787;28;20116;-83
2022/05/22 14:19:04;;;;;;;15.05;8.70;;;;;;;21.89;42.57;101194.59;5021593;28;20040;-83
2022/05/22 14:21:39;;;;;;;14.13;7.57;;;;;;;22.00;43.92;101198.97;5020397;28;20021;-88
2022/05/22 14:27:10;;;;;;;14.23;6.60;;;;;;;22.34;45.76;101195.56;5025702;28;20092;-88
2022/05/22 14:29:36;;;;;;;11.00;6.95;;;;;;;22.17;42.51;101195.06;5025300;28;20093;-88
2022/05/22 14:32:01;;;;;;;12.02;7.00;;;;;;;21.83;40.43;101191.03;5025815;28;20112;-88
2022/05/22 14:34:30;;;;;;;13.80;7.00;;;;;;;21.87;41.90;101199.59;5025396;28;20979;-88
2022/05/22 14:37:00;;;;;;;12.75;7.47;;;;;;;21.98;43.99;101192.91;5025696;28;20564;-83
2022/05/22 14:39:27;;;;;;;11.88;6.90;;;;;;;21.96;42.57;101192.34;5020780;28;20045;-83
2022/05/22 14:41:54;;;;;;;10.60;6.80;;;;;;;21.94;43.60;101191.00;5021697;28;20037;-83
2022/05/22 14:44:31;;;;;;;11.98;6.80;;;;;;;22.04;43.53;101174.41;5019648;28;20052;-83
2022/05/22 14:46:59;;;;;;;13.65;6.70;;;;;;;22.07;46.43;101177.44;5021194;28;20032;-83
2022/05/22 14:49:28;;;;;;;13.73;7.10;;;;;;;22.19;43.51;101179.06;5022345;28;20143;-83
2022/05/22 14:52:04;;;;;;;12.85;7.55;;;;;;;22.07;43.54;101171.09;5021056;28;20052;-83
2022/05/22 14:54:36;;;;;;;10.85;7.00;;;;;;;21.98;42.45;101179.13;5015303;28;20029;-83
2022/05/22 14:57:31;;;;;;;14.57;7.13;;;;;;;22.02;42.96;101173.88;5022408;28;20029;-82
2022/05/22 15:00:04;;;;;;;11.32;6.95;;;;;;;21.92;43.75;101174.72;5020654;28;20103;-83
2022/05/22 15:02:35;;;;;;;13.35;7.50;;;;;;;21.97;43.72;101171.94;5021199;28;20051;-83
2022/05/22 15:05:21;;;;;;;10.50;6.57;;;;;;;22.07;44.61;101171.09;5021183;28;20246;-83
2022/05/22 15:07:59;;;;;;;13.25;7.55;;;;;;;22.05;43.49;101165.84;5021299;28;20033;-83
2022/05/22 15:10:27;;;;;;;12.15;7.22;;;;;;;21.92;44.02;101160.94;5024476;28;20038;-83
2022/05/22 15:12:53;;;;;;;10.48;6.75;;;;;;;21.83;44.19;101159.88;5024164;28;20040;-85
2022/05/22 15:15:34;;;;;;;13.10;7.45;;;;;;;21.90;43.26;101154.88;5023287;28;20041;-83
2022/05/22 15:18:16;;;;;;;12.45;6.47;;;;;;;22.00;43.33;101151.25;5025515;28;20156;-84
2022/05/22 15:20:42;;;;;;;12.82;6.80;;;;;;;22.02;44.11;101135.25;5025132;28;20131;-84
2022/05/22 15:26:23;;;;;;;11.88;6.68;;;;;;;22.22;43.00;101132.41;5025411;28;20048;-84
2022/05/22 15:28:50;;;;;;;12.40;6.63;;;;;;;22.17;42.43;101139.88;5021910;28;20041;-84
2022/05/22 15:31:33;;;;;;;13.15;7.28;;;;;;;22.12;41.89;101123.34;5041703;28;20500;-82
2022/05/22 15:34:11;;;;;;;11.02;6.88;;;;;;;21.99;42.09;101117.34;5022734;28;20065;-83
2022/05/22 15:36:42;;;;;;;13.20;7.32;;;;;;;21.91;41.43;101110.47;5033907;28;20033;-82
2022/05/22 15:39:13;;;;;;;14.88;7.00;;;;;;;22.05;42.83;101113.44;5024388;28;20528;-83
2022/05/22 15:41:42;;;;;;;11.80;6.47;;;;;;;22.20;42.93;101112.53;5022549;28;20067;-82
2022/05/22 15:44:14;;;;;;;13.80;7.93;;;;;;;22.08;42.44;101112.03;5019899;28;20119;-82
2022/05/22 15:46:48;;;;;;;14.88;7.00;;;;;;;22.13;42.87;101111.22;5020084;28;20039;-83
2022/05/22 15:52:04;;;;;;;9.95;5.93;;;;;;;22.25;43.73;101098.72;5021722;28;20385;-82
2022/05/22 15:54:30;;;;;;;12.80;5.93;;;;;;;22.34;43.65;101103.63;5021049;28;20025;-82
2022/05/22 15:56:56;;;;;;;10.57;6.22;;;;;;;22.33;42.90;101102.81;5020677;28;20038;-83
2022/05/22 15:59:21;;;;;;;9.65;6.28;;;;;;;22.27;42.42;101098.41;5003338;28;20403;-83
2022/05/22 16:01:46;;;;;;;14.93;6.80;;;;;;;22.26;43.27;101094.00;4999735;28;20045;-82
2022/05/22 16:04:15;;;;;;;14.07;6.97;;;;;;;22.20;41.91;101095.16;5015677;28;20163;-82
2022/05/22 16:06:40;;;;;;;10.57;6.40;;;;;;;22.24;42.67;101072.22;5032773;28;20036;-82
2022/05/22 16:09:08;;;;;;;11.30;5.90;;;;;;;22.45;43.95;101071.28;4983703;28;20037;-82
2022/05/22 16:11:34;;;;;;;13.68;6.38;;;;;;;22.43;42.47;101072.41;5016137;28;20044;-83
2022/05/22 16:14:00;;;;;;;10.23;5.57;;;;;;;22.46;43.13;101067.44;5015186;28;20528;-83
2022/05/22 16:16:27;;;;;;;10.10;6.30;;;;;;;22.41;41.87;101063.59;5016405;28;20037;-83
2022/05/22 16:18:54;;;;;;;12.18;6.53;;;;;;;22.31;42.31;101052.56;5015487;28;20038;-82
2022/05/22 16:21:22;;;;;;;8.85;5.70;;;;;;;22.34;42.33;101051.19;5016957;28;20478;-83
2022/05/22 16:23:49;;;;;;;10.27;5.60;;;;;;;22.39;43.53;101045.66;5017345;28;20515;-82
2022/05/22 16:26:15;;;;;;;12.77;5.88;;;;;;;22.41;41.82;101044.28;5017021;28;20032;-82
2022/05/22 16:28:40;;;;;;;13.20;6.18;;;;;;;22.32;40.71;101042.38;5016830;28;20365;-82
2022/05/22 16:31:06;;;;;;;11.55;6.05;;;;;;;22.28;40.44;101042.13;5002473;28;20029;-82
2022/05/22 16:33:34;;;;;;;13.20;5.90;;;;;;;22.26;41.82;101036.88;5018422;28;20060;-83
2022/05/22 16:35:59;;;;;;;13.00;6.40;;;;;;;22.29;41.85;101037.41;5019398;28;20041;-82
2022/05/22 16:38:25;;;;;;;10.98;5.47;;;;;;;22.31;41.81;101032.44;5020837;28;20374;-82
2022/05/22 16:40:50;;;;;;;12.70;5.50;;;;;;;22.28;41.16;101020.03;5020463;28;20556;-82
2022/05/22 16:43:15;;;;;;;10.55;6.18;;;;;;;22.31;40.31;101021.41;4987769;28;20493;-88
2022/05/22 16:45:41;;;;;;;10.80;5.53;;;;;;;22.26;42.20;101022.25;5023695;28;20396;-89
2022/05/22 16:53:35;;;;;;;11.68;6.07;;;;;;;22.31;40.65;101019.44;5022865;28;20137;-88
2022/05/22 16:56:01;;;;;;;10.15;5.93;;;;;;;22.28;43.40;101020.03;5023114;28;20030;-88
2022/05/22 16:58:31;;;;;;;10.63;5.60;;;;;;;22.25;41.89;101017.84;5022850;28;20040;-87
2022/05/22 17:01:00;;;;;;;10.93;5.72;;;;;;;22.21;42.07;101017.59;5017173;28;20136;-88
2022/05/22 17:03:30;;;;;;;11.82;6.05;;;;;;;22.23;41.79;101020.06;5021577;28;20037;-89
2022/05/22 17:05:58;;;;;;;11.48;5.97;;;;;;;22.20;41.61;101021.47;5023791;28;20032;-88
2022/05/22 17:08:34;;;;;;;14.10;6.30;;;;;;;22.35;44.29;101017.81;5023741;28;20029;-89
2022/05/22 17:11:02;;;;;;;11.93;6.82;;;;;;;22.37;44.12;101000.94;5022089;28;20029;-89
2022/05/22 17:13:29;;;;;;;11.80;6.22;;;;;;;22.52;42.62;101016.56;5024022;28;20083;-88
2022/05/22 17:15:55;;;;;;;11.48;6.40;;;;;;;22.46;42.23;101014.97;5021486;28;20084;-89
2022/05/22 17:18:21;;;;;;;11.20;6.22;;;;;;;22.48;42.18;101019.09;5022135;28;20037;-88
2022/05/22 17:20:48;;;;;;;9.90;5.82;;;;;;;22.52;40.32;101022.09;5023986;28;20026;-88
2022/05/22 17:23:18;;;;;;;10.63;6.10;;;;;;;22.51;40.85;101020.47;5022408;28;20026;-88
2022/05/22 17:25:43;;;;;;;15.75;6.63;;;;;;;22.43;40.15;101013.63;5022915;28;20029;-87
2022/05/22 17:28:09;;;;;;;10.02;6.18;;;;;;;22.38;40.26;101019.97;5027924;28;20035;-87
2022/05/22 17:30:34;;;;;;;14.13;6.53;;;;;;;22.47;40.69;101013.88;5007666;28;20029;-87
2022/05/22 17:33:00;;;;;;;10.60;6.75;;;;;;;22.80;40.93;101006.66;5026560;28;20029;-87
2022/05/22 17:35:28;;;;;;;11.57;6.60;;;;;;;23.00;41.68;101002.88;5025395;28;20067;-87
2022/05/22 17:37:55;;;;;;;11.13;6.90;;;;;;;22.83;40.18;100999.72;5025694;28;20593;-88
2022/05/22 17:40:32;;;;;;;13.48;6.75;;;;;;;22.59;42.33;101003.28;5024086;28;21529;-88
2022/05/22 17:43:01;;;;;;;14.80;6.85;;;;;;;22.40;40.57;100992.91;5027398;28;20029;-88
2022/05/22 17:45:27;;;;;;;11.30;6.75;;;;;;;22.21;40.59;100980.91;5024796;28;20438;-88
2022/05/22 17:47:54;;;;;;;13.98;6.90;;;;;;;22.07;41.49;100986.22;5025155;28;20565;-87
2022/05/22 17:50:20;;;;;;;13.73;7.50;;;;;;;21.91;41.88;100971.72;5019866;28;20158;-87
2022/05/22 17:52:49;;;;;;;14.15;7.95;;;;;;;21.85;42.92;100981.13;5025554;28;20032;-87
2022/05/22 17:55:15;;;;;;;15.57;7.75;;;;;;;21.72;43.65;100979.84;5024760;28;20454;-89
2022/05/22 17:57:40;;;;;;;13.38;7.80;;;;;;;21.65;45.74;100966.34;5026468;28;20562;-88
2022/05/22 18:00:07;;;;;;;16.58;9.30;;;;;;;21.61;44.71;100973.53;5022204;28;20033;-83
2022/05/22 18:02:33;;;;;;;14.85;9.50;;;;;;;21.56;44.36;100968.84;5022564;28;20029;-83
2022/05/22 18:04:58;;;;;;;13.27;9.50;;;;;;;21.42;46.46;100963.09;5022493;28;20448;-83
2022/05/22 18:07:29;;;;;;;16.33;9.68;;;;;;;21.33;47.00;100956.53;5022450;28;20031;-83
2022/05/22 18:10:06;;;;;;;17.80;11.48;;;;;;;21.28;47.65;100955.72;5022098;28;20040;-83
2022/05/22 18:18:01;;;;;;;17.50;10.70;;;;;;;21.10;48.76;100948.91;5024274;28;20043;-83
2022/05/22 18:20:27;;;;;;;17.23;10.35;;;;;;;21.00;51.26;100947.00;5022963;28;20461;-83
2022/05/22 18:22:55;;;;;;;18.13;10.82;;;;;;;20.98;50.13;100955.53;5022651;28;20654;-83
2022/05/22 18:25:29;;;;;;;18.95;12.70;;;;;;;20.93;49.19;100947.31;5022665;28;20055;-83
2022/05/22 18:28:02;;;;;;;;;;;;;;;21.10;48.40;100959.94;5023622;28;20041;-83
2022/05/22 18:30:28;;;;;;;20.42;13.32;;;;;;;20.81;50.76;100961.38;5021155;28;19960;-84
2022/05/22 18:32:53;;;;;;;15.75;10.38;;;;;;;20.83;50.81;100955.56;5022700;28;20116;-83
2022/05/22 18:35:21;;;;;;;15.60;10.15;;;;;;;20.74;49.08;100958.91;5004825;28;20065;-89
2022/05/22 18:37:47;;;;;;;17.88;10.07;;;;;;;20.65;49.89;100959.72;5024170;28;20034;-89
2022/05/22 18:40:15;;;;;;;17.05;9.70;;;;;;;20.57;49.38;100952.81;5024598;28;20088;-88
2022/05/22 18:43:08;;;;;;;15.38;9.52;;;;;;;20.58;49.37;100958.03;5023837;28;20038;-88
2022/05/22 18:45:42;;;;;;;15.05;8.50;;;;;;;20.51;50.75;100952.00;5021453;28;20412;-88
2022/05/22 18:48:29;;;;;;;15.95;9.52;;;;;;;20.47;50.85;100945.41;5025076;28;20675;-89
2022/05/22 18:50:56;;;;;;;15.45;8.85;;;;;;;20.38;50.95;100953.38;5023786;28;20025;-88
2022/05/22 18:53:21;;;;;;;15.07;8.25;;;;;;;20.29;50.62;100949.53;5024720;28;20025;-88
2022/05/22 18:55:48;;;;;;;16.50;8.85;;;;;;;20.17;50.69;100933.28;5022988;28;20358;-89
2022/05/22 18:58:23;;;;;;;15.82;8.90;;;;;;;20.15;50.15;100932.72;5024664;28;20037;-88
2022/05/22 19:00:49;;;;;;;16.52;8.85;;;;;;;20.08;50.53;100932.19;5024275;28;20026;-88
2022/05/22 19:03:16;;;;;;;15.77;9.07;;;;;;;20.06;50.59;100940.72;5022774;28;20021;-88
2022/05/22 19:05:42;;;;;;;18.98;10.23;;;;;;;20.01;50.17;100937.13;5022721;28;20099;-88
2022/05/22 19:08:18;;;;;;;18.02;10.50;;;;;;;19.89;51.84;100945.63;5023340;28;20445;-88
2022/05/22 19:10:45;;;;;;;14.57;9.95;;;;;;;19.77;52.34;100934.84;5019459;28;20032;-88
2022/05/22 19:13:19;;;;;;;15.85;10.25;;;;;;;19.71;52.91;100924.94;5018966;28;20075;-88
2022/05/22 19:15:44;;;;;;;15.10;10.82;;;;;;;19.68;52.31;100933.75;5023616;28;20053;-82
2022/05/22 19:18:11;;;;;;;16.00;10.68;;;;;;;19.63;54.13;100928.22;5016931;28;20182;-83
2022/05/22 19:20:37;;;;;;;17.33;10.85;;;;;;;19.56;54.03;100923.81;5004857;28;20037;-83
2022/05/22 19:23:03;;;;;;;17.75;11.57;;;;;;;19.47;54.86;100930.09;5017694;28;20434;-83
2022/05/22 19:25:29;;;;;;;15.13;10.75;;;;;;;19.51;53.25;100942.19;5020038;28;20037;-83
2022/05/22 19:27:56;;;;;;;19.63;11.05;;;;;;;19.43;54.25;100931.72;5021397;28;20061;-83
2022/05/22 19:30:23;;;;;;;17.13;10.68;;;;;;;19.40;55.45;100927.59;5015390;28;20088;-83
2022/05/22 19:32:52;;;;;;;19.08;11.82;;;;;;;19.28;56.60;100932.50;5022746;28;20518;-83
2022/05/22 19:35:18;;;;;;;15.82;10.95;;;;;;;19.28;56.30;100927.81;5022136;28;20478;-83
2022/05/22 19:37:44;;;;;;;17.73;11.85;;;;;;;19.12;58.24;100926.09;5022241;28;20036;-83
2022/05/22 19:40:10;;;;;;;17.90;12.07;;;;;;;18.99;58.54;100927.44;5015963;28;20057;-83
2022/05/22 19:45:22;;;;;;;16.40;11.30;;;;;;;18.74;58.19;100928.91;5020640;28;20103;-83
2022/05/22 19:47:58;;;;;;;19.13;11.88;;;;;;;18.66;59.61;100932.16;5000193;28;20067;-83
2022/05/22 19:50:27;;;;;;;15.63;10.60;;;;;;;18.66;60.18;100927.47;5019104;28;20523;-83
2022/05/22 19:52:53;;;;;;;17.30;12.40;;;;;;;18.58;61.14;100917.00;5022756;28;20179;-87
2022/05/22 20:00:47;;;;;;;;;;;;;;;18.63;58.35;100910.69;5023270;28;20036;-87
2022/05/22 20:03:13;;;;;;;20.02;11.50;;;;;;;18.35;60.83;100910.78;5021872;28;19917;-88
2022/05/22 20:05:42;;;;;;;21.30;12.00;;;;;;;18.32;60.60;100908.56;5023754;28;20103;-88
2022/05/22 20:08:14;;;;;;;17.88;10.82;;;;;;;18.29;60.64;100900.88;5043470;28;20034;-90
2022/05/22 20:10:39;;;;;;;13.73;10.43;;;;;;;18.30;61.32;100897.03;5027384;28;20037;-87
2022/05/22 20:13:06;;;;;;;17.03;10.70;;;;;;;18.28;61.52;100893.72;5031275;28;20032;-86
2022/05/22 20:15:34;;;;;;;15.68;10.48;;;;;;;18.26;61.37;100898.63;5028579;28;20111;-86
2022/05/22 20:18:01;;;;;;;16.73;11.03;;;;;;;18.25;61.47;100905.22;5032278;28;20025;-87
2022/05/22 20:20:27;;;;;;;15.18;10.43;;;;;;;18.17;61.02;100897.50;5011276;28;20031;-86
2022/05/22 20:22:53;;;;;;;14.98;10.60;;;;;;;18.10;61.82;100899.59;5028427;28;20033;-83
2022/05/22 20:25:18;;;;;;;17.53;10.67;;;;;;;18.14;61.45;100889.75;5022866;28;20037;-83
2022/05/22 20:27:44;;;;;;;17.30;10.67;;;;;;;18.14;61.86;100887.03;5020976;28;20568;-83
2022/05/22 20:30:16;;;;;;;17.50;10.82;;;;;;;18.12;61.53;100878.25;5019929;28;20021;-83
2022/05/22 20:32:42;;;;;;;16.80;11.07;;;;;;;18.02;61.80;100884.47;5021581;28;20481;-83
2022/05/22 20:35:08;;;;;;;14.53;10.97;;;;;;;18.06;61.64;100882.88;5022417;28;20044;-83
2022/05/22 20:37:35;;;;;;;19.47;11.27;;;;;;;18.04;61.54;100883.09;5022910;28;20033;-83
2022/05/22 20:40:00;;;;;;;18.33;11.00;;;;;;;17.97;61.38;100873.47;5024370;28;20033;-83
2022/05/22 20:42:25;;;;;;;16.83;11.13;;;;;;;17.97;61.20;100868.78;5023567;28;20046;-83
2022/05/22 20:44:53;;;;;;;15.40;11.33;;;;;;;17.96;60.08;100872.63;5025275;28;20481;-87
2022/05/22 20:47:19;;;;;;;17.23;11.03;;;;;;;17.92;60.83;100868.75;5030736;28;20109;-87
2022/05/22 20:49:45;;;;;;;17.03;11.37;;;;;;;17.92;60.21;100874.22;5029002;28;20026;-87
2022/05/22 20:52:11;;;;;;;17.97;11.97;;;;;;;17.92;59.13;100866.00;5029481;28;20036;-87
2022/05/22 20:54:36;;;;;;;17.33;11.07;;;;;;;17.91;59.68;100863.50;5032296;28;20533;-87
2022/05/22 20:57:03;;;;;;;15.93;11.40;;;;;;;17.93;59.23;100853.97;5031530;28;20499;-87
2022/05/22 20:59:41;;;;;;;17.23;11.07;;;;;;;17.96;59.07;100860.84;5013726;28;20041;-87
2022/05/22 21:02:12;;;;;;;15.23;10.40;;;;;;;17.91;58.53;100845.16;5033082;28;20040;-87
2022/05/22 21:04:42;;;;;;;14.27;10.33;;;;;;;17.94;58.54;100849.28;5032542;28;20095;-87
2022/05/22 21:07:28;;;;;;;16.10;9.93;;;;;;;17.97;58.46;100848.78;5032800;28;20041;-88
2022/05/22 21:09:55;;;;;;;15.50;10.07;;;;;;;17.94;58.61;100852.88;5036178;28;20478;-87
2022/05/22 21:12:21;;;;;;;15.63;9.60;;;;;;;17.94;58.75;100852.03;5034377;28;20083;-87
2022/05/22 21:14:50;;;;;;;16.50;10.03;;;;;;;17.91;59.25;100850.63;5037215;28;20029;-87
2022/05/22 21:17:16;;;;;;;14.97;9.53;;;;;;;17.92;58.26;100840.50;5033494;28;20490;-87
2022/05/22 21:19:42;;;;;;;12.67;9.37;;;;;;;17.93;58.36;100845.72;5032376;28;20474;-87
2022/05/22 21:22:07;;;;;;;15.97;9.77;;;;;;;17.95;58.27;100843.56;5019184;28;20029;-87
2022/05/22 21:30:10;;;;;;;15.53;9.67;;;;;;;17.93;58.56;100836.69;5038560;28;20044;-88
2022/05/22 21:32:36;;;;;;;16.23;9.53;;;;;;;17.95;57.86;100834.50;5033103;28;20026;-88
2022/05/22 21:35:03;;;;;;;11.50;9.03;;;;;;;17.93;57.76;100836.69;5017804;28;20037;-88
2022/05/22 21:37:29;;;;;;;13.20;9.23;;;;;;;17.89;58.13;100830.88;5033222;28;20555;-88
2022/05/22 21:39:54;;;;;;;14.63;9.00;;;;;;;17.92;57.61;100832.28;5032679;28;20041;-88
2022/05/22 21:42:20;;;;;;;15.40;9.43;;;;;;;17.90;57.69;100835.25;5031884;28;20096;-88
2022/05/22 21:44:48;;;;;;;14.57;9.07;;;;;;;17.86;58.08;100825.91;5015193;28;20057;-88
2022/05/22 21:47:16;;;;;;;16.03;9.00;;;;;;;17.84;58.24;100828.06;5035556;28;20029;-88
2022/05/22 21:49:42;;;;;;;14.20;9.17;;;;;;;17.78;58.67;100831.88;5031497;28;20068;-88
2022/05/22 21:52:08;;;;;;;14.70;9.50;;;;;;;17.77;58.98;100816.50;5032300;28;20072;-88
2022/05/22 21:54:34;;;;;;;14.80;9.27;;;;;;;17.77;58.58;100822.00;5031357;28;20469;-89
2022/05/22 21:57:01;;;;;;;13.27;8.50;;;;;;;17.76;58.79;100809.38;5034412;28;20028;-88
2022/05/22 21:59:31;;;;;;;12.50;8.60;;;;;;;17.71;58.66;100802.75;5029204;28;20018;-88
2022/05/22 22:01:57;;;;;;;15.63;8.80;;;;;;;17.73;58.98;100799.75;5032772;28;20025;-88
2022/05/22 22:04:24;;;;;;;12.73;8.37;;;;;;;17.66;59.25;100805.44;5036162;28;20029;-88
2022/05/22 22:06:50;;;;;;;14.57;8.50;;;;;;;17.66;58.79;100804.63;5030429;28;20135;-87
2022/05/22 22:09:16;;;;;;;15.87;8.13;;;;;;;17.62;59.40;100795.28;5014736;28;20056;-88
2022/05/22 22:11:43;;;;;;;14.60;7.73;;;;;;;17.60;59.15;100795.53;5033169;28;20118;-88
2022/05/22 22:14:09;;;;;;;10.73;7.33;;;;;;;17.59;59.25;100785.66;5030286;28;20053;-88
2022/05/22 22:16:36;;;;;;;13.80;7.37;;;;;;;17.56;59.29;100794.41;5037086;28;20116;-88
2022/05/22 22:19:02;;;;;;;13.17;7.07;;;;;;;17.54;59.54;100799.31;5032805;28;20032;-88
2022/05/22 22:21:31;;;;;;;14.13;7.37;;;;;;;17.53;59.45;100797.69;5035154;28;20055;-88
2022/05/22 22:23:57;;;;;;;11.67;7.37;;;;;;;17.50;59.54;100784.47;5031377;28;20394;-88
2022/05/22 22:26:24;;;;;;;12.93;7.20;;;;;;;17.43;60.12;100779.22;5032319;28;20029;-88
2022/05/22 22:28:49;;;;;;;13.00;7.13;;;;;;;17.47;59.83;100785.00;5033098;28;20045;-88
2022/05/22 22:31:18;;;;;;;13.73;6.83;;;;;;;17.44;59.73;100782.81;5034961;28;20032;-88
2022/05/22 22:33:45;;;;;;;12.60;6.97;;;;;;;17.44;59.88;100769.91;5031875;28;20489;-88
2022/05/22 22:36:13;;;;;;;13.33;6.70;;;;;;;17.40;59.66;100773.44;5036669;28;20404;-88
2022/05/22 22:38:39;;;;;;;12.20;6.77;;;;;;;17.41;59.79;100769.59;5031953;28;20544;-88
2022/05/22 22:41:05;;;;;;;13.83;6.50;;;;;;;17.40;60.01;100771.53;5030709;28;20046;-87
2022/05/22 22:43:30;;;;;;;13.33;6.07;;;;;;;17.38;60.17;100774.53;5029871;28;20763;-88
2022/05/22 22:45:56;;;;;;;10.80;6.53;;;;;;;17.35;60.43;100766.84;5034403;28;20030;-88
2022/05/22 22:48:22;;;;;;;10.47;6.03;;;;;;;17.34;60.17;100765.19;5036239;28;20114;-88
2022/05/22 22:50:48;;;;;;;13.13;6.27;;;;;;;17.31;60.92;100760.22;5038486;28;20021;-88
2022/05/22 22:53:14;;;;;;;12.73;6.90;;;;;;;17.30;61.05;100761.31;5033467;28;20021;-88
2022/05/22 22:58:25;;;;;;;14.23;6.43;;;;;;;17.30;60.74;100760.47;5030864;28;20063;-88
2022/05/22 23:00:56;;;;;;;11.03;6.50;;;;;;;17.30;60.57;100754.97;5031720;28;20025;-87
2022/05/22 23:03:22;;;;;;;12.33;6.80;;;;;;;17.25;60.87;100750.28;5032846;28;20030;-88
2022/05/22 23:05:48;;;;;;;9.90;6.33;;;;;;;17.25;61.14;100758.50;5014126;28;20076;-88
2022/05/22 23:08:14;;;;;;;10.63;6.23;;;;;;;17.23;61.38;100752.47;5030357;28;20040;-88
2022/05/22 23:10:44;;;;;;;11.57;7.07;;;;;;;17.18;61.93;100753.25;5013518;28;20034;-88
2022/05/22 23:13:11;;;;;;;11.80;6.40;;;;;;;17.18;61.81;100738.75;5029944;28;20108;-88
2022/05/22 23:15:38;;;;;;;10.77;6.73;;;;;;;17.14;62.61;100743.06;5031136;28;20533;-88
2022/05/22 23:18:04;;;;;;;12.03;6.70;;;;;;;17.11;61.36;100716.19;5033209;28;20049;-88
2022/05/22 23:20:31;;;;;;;12.93;6.67;;;;;;;17.12;61.31;100717.84;5014991;28;20036;-88
2022/05/22 23:22:56;;;;;;;11.30;6.60;;;;;;;17.12;61.38;100720.59;5033066;28;20032;-88
2022/05/22 23:25:22;;;;;;;13.97;6.77;;;;;;;17.09;61.98;100719.19;5034319;28;20440;-88
2022/05/22 23:27:53;;;;;;;13.03;6.63;;;;;;;17.05;62.38;100718.06;5029461;28;20108;-88
2022/05/22 23:30:20;;;;;;;14.20;7.30;;;;;;;16.99;62.38;100711.72;5033400;28;20476;-88
2022/05/22 23:32:46;;;;;;;12.73;6.70;;;;;;;17.01;62.57;100712.31;5033314;28;20121;-88
2022/05/22 23:35:13;;;;;;;12.90;6.80;;;;;;;16.99;61.75;100708.97;5029263;28;20524;-88
2022/05/22 23:37:51;;;;;;;11.37;6.77;;;;;;;16.99;62.21;100698.03;5032317;28;20029;-88
2022/05/22 23:40:22;;;;;;;13.43;6.53;;;;;;;16.96;61.88;100698.56;5033399;28;21754;-88
2022/05/22 23:42:48;;;;;;;13.50;6.50;;;;;;;16.97;62.53;100693.91;5033731;28;20486;-88
2022/05/22 23:45:14;;;;;;;13.10;6.47;;;;;;;16.92;62.11;100675.53;5035911;28;20043;-88
2022/05/22 23:47:39;;;;;;;13.73;7.10;;;;;;;16.93;62.27;100673.59;5032475;28;20025;-88
2022/05/22 23:50:06;;;;;;;12.97;6.80;;;;;;;16.92;62.15;100659.09;5031079;28;20375;-88
2022/05/22 23:52:31;;;;;;;11.70;6.70;;;;;;;16.92;62.28;100664.59;5028952;28;20037;-88
2022/05/22 23:54:58;;;;;;;11.27;6.70;;;;;;;16.87;62.33;100643.41;5030006;28;20046;-87
2022/05/22 23:57:24;;;;;;;13.50;6.90;;;;;;;16.86;62.64;100638.22;5029131;28;20037;-88
2022/05/22 23:59:50;;;;;;;12.93;7.00;;;;;;;16.85;62.63;100634.66;5014973;28;20044;-88
